createdAt,value
2019-03-18T00:00:16.431Z,45.49
2019-03-18T00:01:16.429Z,45.39
2019-03-18T00:02:16.407Z,45.39
2019-03-18T00:03:16.392Z,45.09
2019-03-18T00:04:16.389Z,44.89
2019-03-18T00:05:16.359Z,45.18
2019-03-18T00:06:16.356Z,45.41
2019-03-18T00:07:16.327Z,45.39
2019-03-18T00:08:16.314Z,44.91
2019-03-18T00:09:16.297Z,44.89
2019-03-18T00:10:16.282Z,45.39
2019-03-18T00:11:16.282Z,44.68
2019-03-18T00:12:16.262Z,44.99
2019-03-18T00:13:16.235Z,45.01
2019-03-18T00:14:16.221Z,45.21
2019-03-18T00:15:16.208Z,45.41
2019-03-18T00:16:16.236Z,45.21
2019-03-18T00:17:16.179Z,45.31
2019-03-18T00:18:16.165Z,45.10
2019-03-18T00:19:16.145Z,45.21
2019-03-18T00:20:16.129Z,45.21
2019-03-18T00:21:16.113Z,44.79
2019-03-18T00:22:16.104Z,44.91
2019-03-18T00:23:16.084Z,45.10
2019-03-18T00:24:16.071Z,44.99
2019-03-18T00:25:16.063Z,45.51
2019-03-18T00:26:16.049Z,45.10
2019-03-18T00:27:16.025Z,45.10
2019-03-18T00:28:16.016Z,44.81
2019-03-18T00:29:15.978Z,45.10
2019-03-18T00:30:15.962Z,44.81
2019-03-18T00:31:15.962Z,44.81
2019-03-18T00:32:15.913Z,44.40
2019-03-18T00:33:15.890Z,44.81
2019-03-18T00:34:15.878Z,45.01
2019-03-18T00:35:15.861Z,45.09
2019-03-18T00:36:15.860Z,44.40
2019-03-18T00:37:15.841Z,45.10
2019-03-18T00:38:15.805Z,45.01
2019-03-18T00:39:15.792Z,44.40
2019-03-18T00:40:15.773Z,44.91
2019-03-18T00:41:15.775Z,45.21
2019-03-18T00:42:15.748Z,44.81
2019-03-18T00:43:15.727Z,44.60
2019-03-18T00:44:15.715Z,44.91
2019-03-18T00:45:15.931Z,44.91
2019-03-18T00:46:15.663Z,44.40
2019-03-18T00:47:15.665Z,44.51
2019-03-18T00:48:15.654Z,45.10
2019-03-18T00:49:15.645Z,45.10
2019-03-18T00:50:15.690Z,44.81
2019-03-18T00:51:15.601Z,44.60
2019-03-18T00:52:15.624Z,44.71
2019-03-18T00:53:15.571Z,44.91
2019-03-18T00:54:15.539Z,44.60
2019-03-18T00:55:15.519Z,44.81
2019-03-18T00:56:15.538Z,44.51
2019-03-18T00:57:15.554Z,44.91
2019-03-18T00:58:15.510Z,44.51
2019-03-18T00:59:15.473Z,45.10
2019-03-18T01:00:15.458Z,44.40
2019-03-18T01:01:15.408Z,44.81
2019-03-18T01:02:15.433Z,44.40
2019-03-18T01:03:15.395Z,44.40
2019-03-18T01:04:15.399Z,44.51
2019-03-18T01:05:15.425Z,44.60
2019-03-18T01:06:15.376Z,44.81
2019-03-18T01:07:15.347Z,44.81
2019-03-18T01:08:15.368Z,44.51
2019-03-18T01:09:15.407Z,44.31
2019-03-18T01:10:15.306Z,44.31
2019-03-18T01:11:15.315Z,44.40
2019-03-18T01:12:15.273Z,44.31
2019-03-18T01:13:15.319Z,44.40
2019-03-18T01:14:15.278Z,44.60
2019-03-18T01:15:27.247Z,44.40
2019-03-18T01:16:16.227Z,44.60
2019-03-18T01:17:15.214Z,44.31
2019-03-18T01:18:15.462Z,44.40
2019-03-18T01:19:15.221Z,44.31
2019-03-18T01:20:15.261Z,44.51
2019-03-18T01:21:15.168Z,44.60
2019-03-18T01:22:15.870Z,44.31
2019-03-18T01:23:15.431Z,44.40
2019-03-18T01:24:15.109Z,44.31
2019-03-18T01:25:15.096Z,44.51
2019-03-18T01:26:15.114Z,44.40
2019-03-18T01:27:15.083Z,44.31
2019-03-18T01:28:15.096Z,44.51
2019-03-18T01:29:15.046Z,44.31
2019-03-18T01:30:15.050Z,44.40
2019-03-18T01:31:15.004Z,44.31
2019-03-18T01:32:14.985Z,44.31
2019-03-18T01:33:14.967Z,44.40
2019-03-18T01:34:14.943Z,44.20
2019-03-18T01:35:14.926Z,44.40
2019-03-18T01:36:14.910Z,44.40
2019-03-18T01:37:14.896Z,44.40
2019-03-18T01:38:14.901Z,44.31
2019-03-18T01:39:14.873Z,44.31
2019-03-18T01:40:14.853Z,44.20
2019-03-18T01:41:14.837Z,44.51
2019-03-18T01:42:16.874Z,44.40
2019-03-18T01:43:14.832Z,44.40
2019-03-18T01:44:14.802Z,44.40
2019-03-18T01:45:14.799Z,44.51
2019-03-18T01:46:14.773Z,44.40
2019-03-18T01:47:14.757Z,44.31
2019-03-18T01:48:14.735Z,44.60
2019-03-18T01:49:14.725Z,44.20
2019-03-18T01:50:14.708Z,44.40
2019-03-18T01:51:14.695Z,44.40
2019-03-18T01:52:14.671Z,44.43
2019-03-18T01:53:14.677Z,44.71
2019-03-18T01:54:14.651Z,44.81
2019-03-18T01:55:14.635Z,44.51
2019-03-18T01:56:14.618Z,44.43
2019-03-18T01:57:14.599Z,44.40
2019-03-18T01:58:14.594Z,44.60
2019-03-18T01:59:14.577Z,44.43
2019-03-18T02:00:14.552Z,44.40
2019-03-18T02:01:14.533Z,44.63
2019-03-18T02:02:14.515Z,44.73
2019-03-18T02:03:14.509Z,44.51
2019-03-18T02:04:14.490Z,44.40
2019-03-18T02:05:14.467Z,44.40
2019-03-18T02:06:14.454Z,44.73
2019-03-18T02:07:14.446Z,44.60
2019-03-18T02:08:14.416Z,44.93
2019-03-18T02:09:14.410Z,44.60
2019-03-18T02:10:14.386Z,44.81
2019-03-18T02:11:14.375Z,44.71
2019-03-18T02:12:14.370Z,44.71
2019-03-18T02:13:14.343Z,44.71
2019-03-18T02:14:14.340Z,44.71
2019-03-18T02:15:14.318Z,44.83
2019-03-18T02:16:14.303Z,44.93
2019-03-18T02:17:14.286Z,44.81
2019-03-18T02:18:14.271Z,44.91
2019-03-18T02:19:14.265Z,44.81
2019-03-18T02:20:14.242Z,44.83
2019-03-18T02:21:14.238Z,44.93
2019-03-18T02:22:14.212Z,44.63
2019-03-18T02:23:14.192Z,44.81
2019-03-18T02:24:14.189Z,44.73
2019-03-18T02:25:14.168Z,44.83
2019-03-18T02:26:14.166Z,44.73
2019-03-18T02:27:14.146Z,44.73
2019-03-18T02:28:14.132Z,44.93
2019-03-18T02:29:14.127Z,44.93
2019-03-18T02:30:14.125Z,45.03
2019-03-18T02:31:14.117Z,44.73
2019-03-18T02:32:14.109Z,44.73
2019-03-18T02:33:14.089Z,44.93
2019-03-18T02:34:14.094Z,44.73
2019-03-18T02:35:14.041Z,44.93
2019-03-18T02:36:14.028Z,44.93
2019-03-18T02:37:14.022Z,44.73
2019-03-18T02:38:14.000Z,44.93
2019-03-18T02:39:13.990Z,44.73
2019-03-18T02:40:14.078Z,44.73
2019-03-18T02:41:13.979Z,45.03
2019-03-18T02:42:13.970Z,44.93
2019-03-18T02:43:13.965Z,44.93
2019-03-18T02:44:13.956Z,44.83
2019-03-18T02:45:13.973Z,44.73
2019-03-18T02:46:13.937Z,44.73
2019-03-18T02:47:13.927Z,44.73
2019-03-18T02:48:13.921Z,44.83
2019-03-18T02:49:13.922Z,45.13
2019-03-18T02:50:13.924Z,45.03
2019-03-18T02:51:13.908Z,45.01
2019-03-18T02:52:13.925Z,44.73
2019-03-18T02:53:13.896Z,45.03
2019-03-18T02:54:13.888Z,45.03
2019-03-18T02:55:13.904Z,45.03
2019-03-18T02:56:13.879Z,44.83
2019-03-18T02:57:13.875Z,45.03
2019-03-18T02:58:13.858Z,44.93
2019-03-18T02:59:13.864Z,44.32
2019-03-18T03:00:13.854Z,44.73
2019-03-18T03:01:13.836Z,45.03
2019-03-18T03:02:13.831Z,45.03
2019-03-18T03:03:13.852Z,44.93
2019-03-18T03:04:13.809Z,44.93
2019-03-18T03:05:13.815Z,45.23
2019-03-18T03:06:13.815Z,44.93
2019-03-18T03:07:13.792Z,44.93
2019-03-18T03:08:13.783Z,44.83
2019-03-18T03:09:13.781Z,44.93
2019-03-18T03:10:13.801Z,45.03
2019-03-18T03:11:13.759Z,44.12
2019-03-18T03:12:13.784Z,45.13
2019-03-18T03:13:13.753Z,45.23
2019-03-18T03:14:13.747Z,45.03
2019-03-18T03:15:13.773Z,45.23
2019-03-18T03:16:25.668Z,45.03
2019-03-18T03:17:14.738Z,45.23
2019-03-18T03:18:13.719Z,44.12
2019-03-18T03:19:13.741Z,45.03
2019-03-18T03:20:13.767Z,45.23
2019-03-18T03:21:13.701Z,45.23
2019-03-18T03:22:13.683Z,45.23
2019-03-18T03:23:13.675Z,44.23
2019-03-18T03:24:13.678Z,44.23
2019-03-18T03:25:13.665Z,45.23
2019-03-18T03:26:13.675Z,44.12
2019-03-18T03:27:13.647Z,45.23
2019-03-18T03:28:13.650Z,44.02
2019-03-18T03:29:13.627Z,45.33
2019-03-18T03:30:13.627Z,44.23
2019-03-18T03:31:13.629Z,44.12
2019-03-18T03:32:13.617Z,45.23
2019-03-18T03:33:13.605Z,44.02
2019-03-18T03:34:14.572Z,43.92
2019-03-18T03:35:14.053Z,44.02
2019-03-18T03:36:13.595Z,44.12
2019-03-18T03:37:13.575Z,44.32
2019-03-18T03:38:13.566Z,44.12
2019-03-18T03:39:13.566Z,44.02
2019-03-18T03:40:13.558Z,44.02
2019-03-18T03:41:17.498Z,44.02
2019-03-18T03:42:13.567Z,44.02
2019-03-18T03:43:13.545Z,44.12
2019-03-18T03:44:13.547Z,44.32
2019-03-18T03:45:13.558Z,45.33
2019-03-18T03:46:13.532Z,44.02
2019-03-18T03:47:13.529Z,44.43
2019-03-18T03:48:13.529Z,44.23
2019-03-18T03:49:13.548Z,44.02
2019-03-18T03:50:13.521Z,45.23
2019-03-18T03:51:13.507Z,45.13
2019-03-18T03:52:13.507Z,44.02
2019-03-18T03:53:13.482Z,44.02
2019-03-18T03:54:13.475Z,44.32
2019-03-18T03:55:13.485Z,44.12
2019-03-18T03:56:13.455Z,44.43
2019-03-18T03:57:13.455Z,44.23
2019-03-18T03:58:13.439Z,44.02
2019-03-18T03:59:13.439Z,44.93
2019-03-18T04:00:13.427Z,44.43
2019-03-18T04:01:13.419Z,43.92
2019-03-18T04:02:13.398Z,44.35
2019-03-18T04:03:13.495Z,44.02
2019-03-18T04:04:13.372Z,44.04
2019-03-18T04:05:13.367Z,44.02
2019-03-18T04:06:13.354Z,44.02
2019-03-18T04:07:13.366Z,44.43
2019-03-18T04:08:13.338Z,44.04
2019-03-18T04:09:13.331Z,44.23
2019-03-18T04:10:13.365Z,44.32
2019-03-18T04:11:13.331Z,44.23
2019-03-18T04:12:13.328Z,44.32
2019-03-18T04:13:13.356Z,44.43
2019-03-18T04:14:13.292Z,44.45
2019-03-18T04:15:13.286Z,44.02
2019-03-18T04:16:13.277Z,44.23
2019-03-18T04:17:13.284Z,44.45
2019-03-18T04:18:13.259Z,44.24
2019-03-18T04:19:13.253Z,44.24
2019-03-18T04:20:13.249Z,44.23
2019-03-18T04:21:13.237Z,44.45
2019-03-18T04:22:13.257Z,44.24
2019-03-18T04:23:13.228Z,44.45
2019-03-18T04:24:13.262Z,44.63
2019-03-18T04:25:13.226Z,44.15
2019-03-18T04:26:13.289Z,44.12
2019-03-18T04:27:13.214Z,44.15
2019-03-18T04:28:13.205Z,44.24
2019-03-18T04:29:13.189Z,44.24
2019-03-18T04:30:13.189Z,44.45
2019-03-18T04:31:13.184Z,44.24
2019-03-18T04:32:13.176Z,44.04
2019-03-18T04:33:13.169Z,44.15
2019-03-18T04:34:13.160Z,44.04
2019-03-18T04:35:13.155Z,44.65
2019-03-18T04:36:13.157Z,44.45
2019-03-18T04:37:13.142Z,44.63
2019-03-18T04:38:13.150Z,44.45
2019-03-18T04:39:13.132Z,44.24
2019-03-18T04:40:13.129Z,44.32
2019-03-18T04:41:13.129Z,44.35
2019-03-18T04:42:13.122Z,44.24
2019-03-18T04:43:13.132Z,44.35
2019-03-18T04:44:13.121Z,44.35
2019-03-18T04:45:13.101Z,44.45
2019-03-18T04:46:13.105Z,44.24
2019-03-18T04:47:14.492Z,44.43
2019-03-18T04:48:13.109Z,44.24
2019-03-18T04:49:13.100Z,44.15
2019-03-18T04:50:13.101Z,44.24
2019-03-18T04:51:13.098Z,44.35
2019-03-18T04:52:13.093Z,44.24
2019-03-18T04:53:13.111Z,44.24
2019-03-18T04:54:13.086Z,44.35
2019-03-18T04:55:13.089Z,44.24
2019-03-18T04:56:13.069Z,44.35
2019-03-18T04:57:13.074Z,44.35
2019-03-18T04:58:13.085Z,44.43
2019-03-18T04:59:13.064Z,44.43
2019-03-18T05:00:13.069Z,44.45
2019-03-18T05:01:13.057Z,44.35
2019-03-18T05:02:13.058Z,44.35
2019-03-18T05:03:13.042Z,44.65
2019-03-18T05:04:13.057Z,44.45
2019-03-18T05:05:13.051Z,44.65
2019-03-18T05:06:13.030Z,44.24
2019-03-18T05:07:13.027Z,44.55
2019-03-18T05:08:13.024Z,44.53
2019-03-18T05:09:13.027Z,44.45
2019-03-18T05:10:13.016Z,44.23
2019-03-18T05:11:13.018Z,44.63
2019-03-18T05:12:13.011Z,44.24
2019-03-18T05:13:13.003Z,44.55
2019-03-18T05:14:13.000Z,44.24
2019-03-18T05:15:12.992Z,44.65
2019-03-18T05:16:12.987Z,44.55
2019-03-18T05:17:12.991Z,44.35
2019-03-18T05:18:12.989Z,44.55
2019-03-18T05:19:12.991Z,44.55
2019-03-18T05:20:12.973Z,44.35
2019-03-18T05:21:12.971Z,44.55
2019-03-18T05:22:12.966Z,44.55
2019-03-18T05:23:12.970Z,44.55
2019-03-18T05:24:12.974Z,44.45
2019-03-18T05:25:12.946Z,44.35
2019-03-18T05:26:12.944Z,44.65
2019-03-18T05:27:12.935Z,44.55
2019-03-18T05:28:12.925Z,44.65
2019-03-18T05:29:12.932Z,44.55
2019-03-18T05:30:12.914Z,44.35
2019-03-18T05:31:12.915Z,44.35
2019-03-18T05:32:12.892Z,44.35
2019-03-18T05:33:12.890Z,44.45
2019-03-18T05:34:12.895Z,44.55
2019-03-18T05:35:12.879Z,44.55
2019-03-18T05:36:12.879Z,44.45
2019-03-18T05:37:12.867Z,44.65
2019-03-18T05:38:12.868Z,44.65
2019-03-18T05:39:12.876Z,44.45
2019-03-18T05:40:12.838Z,44.45
2019-03-18T05:41:12.836Z,44.35
2019-03-18T05:42:12.831Z,44.55
2019-03-18T05:43:12.825Z,44.65
2019-03-18T05:44:12.821Z,44.45
2019-03-18T05:45:12.812Z,44.65
2019-03-18T05:46:12.812Z,44.65
2019-03-18T05:47:12.798Z,44.65
2019-03-18T05:48:12.795Z,44.65
2019-03-18T05:49:12.798Z,44.24
2019-03-18T05:50:12.802Z,44.45
2019-03-18T05:51:12.797Z,44.55
2019-03-18T05:52:12.795Z,44.55
2019-03-18T05:53:12.794Z,44.65
2019-03-18T05:54:12.789Z,44.55
2019-03-18T05:55:12.796Z,44.45
2019-03-18T05:56:12.793Z,44.45
2019-03-18T05:57:12.770Z,44.35
2019-03-18T05:58:12.765Z,44.35
2019-03-18T05:59:12.748Z,44.45
2019-03-18T06:00:12.757Z,44.24
2019-03-18T06:01:12.737Z,44.24
2019-03-18T06:02:12.732Z,44.24
2019-03-18T06:03:12.731Z,44.35
2019-03-18T06:04:12.727Z,44.55
2019-03-18T06:05:12.745Z,44.65
2019-03-18T06:06:12.727Z,44.35
2019-03-18T06:07:12.721Z,44.65
2019-03-18T06:08:12.718Z,44.55
2019-03-18T06:09:12.716Z,44.55
2019-03-18T06:10:12.714Z,44.55
2019-03-18T06:11:12.715Z,44.45
2019-03-18T06:12:12.709Z,44.35
2019-03-18T06:13:12.705Z,44.55
2019-03-18T06:14:12.704Z,44.45
2019-03-18T06:15:12.729Z,44.35
2019-03-18T06:16:12.712Z,44.35
2019-03-18T06:17:12.712Z,44.65
2019-03-18T06:18:12.725Z,44.35
2019-03-18T06:19:12.703Z,44.35
2019-03-18T06:20:12.709Z,44.45
2019-03-18T06:21:12.705Z,44.55
2019-03-18T06:22:12.699Z,44.65
2019-03-18T06:23:12.694Z,44.35
2019-03-18T06:24:12.692Z,44.55
2019-03-18T06:25:12.703Z,44.35
2019-03-18T06:26:12.692Z,44.35
2019-03-18T06:27:12.689Z,44.55
2019-03-18T06:28:12.679Z,44.65
2019-03-18T06:29:12.679Z,44.45
2019-03-18T06:30:12.673Z,44.65
2019-03-18T06:31:12.673Z,44.55
2019-03-18T06:32:12.672Z,44.65
2019-03-18T06:33:12.648Z,44.24
2019-03-18T06:34:12.643Z,44.55
2019-03-18T06:35:12.653Z,44.45
2019-03-18T06:36:12.646Z,44.45
2019-03-18T06:37:12.628Z,44.65
2019-03-18T06:38:12.642Z,44.35
2019-03-18T06:39:12.623Z,44.75
2019-03-18T06:40:12.620Z,44.75
2019-03-18T06:41:12.628Z,44.35
2019-03-18T06:42:12.609Z,44.24
2019-03-18T06:43:12.613Z,44.24
2019-03-18T06:44:12.595Z,44.45
2019-03-18T06:45:12.590Z,44.45
2019-03-18T06:46:12.652Z,44.55
2019-03-18T06:47:12.584Z,44.85
2019-03-18T06:48:12.577Z,44.55
2019-03-18T06:49:12.569Z,44.55
2019-03-18T06:50:12.579Z,44.55
2019-03-18T06:51:12.576Z,44.45
2019-03-18T06:52:12.547Z,44.55
2019-03-18T06:53:12.554Z,44.55
2019-03-18T06:54:12.540Z,44.45
2019-03-18T06:55:12.556Z,44.65
2019-03-18T06:56:12.543Z,44.65
2019-03-18T06:57:12.531Z,44.55
2019-03-18T06:58:12.538Z,44.65
2019-03-18T06:59:12.530Z,44.55
2019-03-18T07:00:12.519Z,44.55
2019-03-18T07:01:12.533Z,44.24
2019-03-18T07:02:12.521Z,44.15
2019-03-18T07:03:12.502Z,44.04
2019-03-18T07:04:12.517Z,44.93
2019-03-18T07:05:12.487Z,44.85
2019-03-18T07:06:12.501Z,44.15
2019-03-18T07:07:12.480Z,44.63
2019-03-18T07:08:12.471Z,44.73
2019-03-18T07:09:12.461Z,45.03
2019-03-18T07:10:12.461Z,45.33
2019-03-18T07:11:12.457Z,44.32
2019-03-18T07:12:12.463Z,42.74
2019-03-18T07:13:12.471Z,42.33
2019-03-18T07:14:12.468Z,41.35
2019-03-18T07:15:12.453Z,41.45
2019-03-18T07:16:12.448Z,41.55
2019-03-18T07:17:12.465Z,40.86
2019-03-18T07:18:18.363Z,41.06
2019-03-18T07:19:13.467Z,41.06
2019-03-18T07:20:12.461Z,40.66
2019-03-18T07:21:14.713Z,41.27
2019-03-18T07:22:12.491Z,41.15
2019-03-18T07:23:12.472Z,40.75
2019-03-18T07:24:12.479Z,40.92
2019-03-18T07:25:12.467Z,40.83
2019-03-18T07:26:12.464Z,40.81
2019-03-18T07:27:12.471Z,40.70
2019-03-18T07:28:12.457Z,40.89
2019-03-18T07:29:12.455Z,41.17
2019-03-18T07:30:12.452Z,40.55
2019-03-18T07:31:12.447Z,39.91
2019-03-18T07:32:12.452Z,38.59
2019-03-18T07:33:12.427Z,38.42
2019-03-18T07:34:12.414Z,37.58
2019-03-18T07:35:12.400Z,37.14
2019-03-18T07:36:12.380Z,37.36
2019-03-18T07:37:12.369Z,36.86
2019-03-18T07:38:12.318Z,37.02
2019-03-18T07:39:12.282Z,36.11
2019-03-18T07:40:12.239Z,35.69
2019-03-18T07:41:12.201Z,35.88
2019-03-18T07:42:12.177Z,35.36
2019-03-18T07:43:12.093Z,35.56
2019-03-18T07:44:12.045Z,35.06
2019-03-18T07:45:11.981Z,35.05
2019-03-18T07:46:11.933Z,34.45
2019-03-18T07:47:11.858Z,34.94
2019-03-18T07:48:12.648Z,34.94
2019-03-18T07:49:11.734Z,34.83
2019-03-18T07:50:11.669Z,35.77
2019-03-18T07:51:11.615Z,37.06
2019-03-18T07:52:11.563Z,37.90
2019-03-18T07:53:11.520Z,38.63
2019-03-18T07:54:11.454Z,38.67
2019-03-18T07:55:11.409Z,39.77
2019-03-18T07:56:11.365Z,39.63
2019-03-18T07:57:11.327Z,39.85
2019-03-18T07:58:11.304Z,40.17
2019-03-18T07:59:11.256Z,40.27
2019-03-18T08:00:11.231Z,40.99
2019-03-18T08:01:11.211Z,40.81
2019-03-18T08:02:11.191Z,40.17
2019-03-18T08:03:11.177Z,40.77
2019-03-18T08:04:11.120Z,40.79
2019-03-18T08:05:11.098Z,41.09
2019-03-18T08:06:11.073Z,40.91
2019-03-18T08:07:11.140Z,41.71
2019-03-18T08:08:11.052Z,41.23
2019-03-18T08:09:11.017Z,41.63
2019-03-18T08:10:11.016Z,42.03
2019-03-18T08:11:10.996Z,42.33
2019-03-18T08:12:10.993Z,42.83
2019-03-18T08:13:10.961Z,42.96
2019-03-18T08:14:10.937Z,42.46
2019-03-18T08:15:10.933Z,42.66
2019-03-18T08:16:10.917Z,42.46
2019-03-18T08:17:10.909Z,42.86
2019-03-18T08:18:10.905Z,42.25
2019-03-18T08:19:10.859Z,42.76
2019-03-18T08:20:10.854Z,42.78
2019-03-18T08:21:10.818Z,42.86
2019-03-18T08:22:10.798Z,42.33
2019-03-18T08:23:10.793Z,42.63
2019-03-18T08:24:10.784Z,42.83
2019-03-18T08:25:10.770Z,42.25
2019-03-18T08:26:10.737Z,42.35
2019-03-18T08:27:10.726Z,42.35
2019-03-18T08:28:10.714Z,42.25
2019-03-18T08:29:10.699Z,42.35
2019-03-18T08:30:10.696Z,42.46
2019-03-18T08:31:10.680Z,42.86
2019-03-18T08:32:11.965Z,42.55
2019-03-18T08:33:10.653Z,42.86
2019-03-18T08:34:10.642Z,42.55
2019-03-18T08:35:10.636Z,42.76
2019-03-18T08:36:10.605Z,43.06
2019-03-18T08:37:10.592Z,42.76
2019-03-18T08:38:10.576Z,42.76
2019-03-18T08:39:10.572Z,43.06
2019-03-18T08:40:10.552Z,43.06
2019-03-18T08:41:10.529Z,42.96
2019-03-18T08:42:10.511Z,43.26
2019-03-18T08:43:10.497Z,43.18
2019-03-18T08:44:10.497Z,42.76
2019-03-18T08:45:10.474Z,42.68
2019-03-18T08:46:10.461Z,42.86
2019-03-18T08:47:10.450Z,42.68
2019-03-18T08:48:10.439Z,42.58
2019-03-18T08:49:10.434Z,42.38
2019-03-18T08:50:12.297Z,42.86
2019-03-18T08:51:10.406Z,43.16
2019-03-18T08:52:10.398Z,42.96
2019-03-18T08:53:10.382Z,42.96
2019-03-18T08:54:10.384Z,43.06
2019-03-18T08:55:10.372Z,43.06
2019-03-18T08:56:10.361Z,42.76
2019-03-18T08:57:10.353Z,42.88
2019-03-18T08:58:10.342Z,42.66
2019-03-18T08:59:10.344Z,42.86
2019-03-18T09:00:10.331Z,42.58
2019-03-18T09:01:10.322Z,42.55
2019-03-18T09:02:10.316Z,42.68
2019-03-18T09:03:10.336Z,42.68
2019-03-18T09:04:10.321Z,42.58
2019-03-18T09:05:10.303Z,42.58
2019-03-18T09:06:10.305Z,42.58
2019-03-18T09:07:10.300Z,42.58
2019-03-18T09:08:10.284Z,42.58
2019-03-18T09:09:10.303Z,42.78
2019-03-18T09:10:10.283Z,42.68
2019-03-18T09:11:10.271Z,42.88
2019-03-18T09:12:10.276Z,42.97
2019-03-18T09:13:10.265Z,43.28
2019-03-18T09:14:10.259Z,43.08
2019-03-18T09:15:10.258Z,43.48
2019-03-18T09:16:10.253Z,43.48
2019-03-18T09:17:10.251Z,43.60
2019-03-18T09:18:10.243Z,42.90
2019-03-18T09:19:10.241Z,43.08
2019-03-18T09:20:10.246Z,42.88
2019-03-18T09:21:10.247Z,42.90
2019-03-18T09:22:10.225Z,42.88
2019-03-18T09:23:10.226Z,42.69
2019-03-18T09:24:10.221Z,42.90
2019-03-18T09:25:10.252Z,42.69
2019-03-18T09:26:10.200Z,42.90
2019-03-18T09:27:10.193Z,43.70
2019-03-18T09:28:10.189Z,43.70
2019-03-18T09:29:10.192Z,43.90
2019-03-18T09:30:10.202Z,43.70
2019-03-18T09:31:10.224Z,43.70
2019-03-18T09:32:10.175Z,43.90
2019-03-18T09:33:10.170Z,43.70
2019-03-18T09:34:10.161Z,43.70
2019-03-18T09:35:10.166Z,43.70
2019-03-18T09:36:10.155Z,43.60
2019-03-18T09:37:10.144Z,43.70
2019-03-18T09:38:10.144Z,43.80
2019-03-18T09:39:10.138Z,43.70
2019-03-18T09:40:10.150Z,43.70
2019-03-18T09:41:10.100Z,43.80
2019-03-18T09:42:10.088Z,43.70
2019-03-18T09:43:10.071Z,43.60
2019-03-18T09:44:10.071Z,44.00
2019-03-18T09:45:10.061Z,43.60
2019-03-18T09:46:10.037Z,43.60
2019-03-18T09:47:10.024Z,43.80
2019-03-18T09:48:10.017Z,43.88
2019-03-18T09:49:20.987Z,43.98
2019-03-18T09:50:10.995Z,43.68
2019-03-18T09:51:09.962Z,43.70
2019-03-18T09:52:09.952Z,42.88
2019-03-18T09:53:09.960Z,42.78
2019-03-18T09:54:09.942Z,42.97
2019-03-18T09:55:09.939Z,44.28
2019-03-18T09:56:09.929Z,43.88
2019-03-18T09:57:09.942Z,43.48
2019-03-18T09:58:09.911Z,43.78
2019-03-18T09:59:09.905Z,43.68
2019-03-18T10:00:12.069Z,43.68
2019-03-18T10:01:09.885Z,43.68
2019-03-18T10:02:09.881Z,43.98
2019-03-18T10:03:09.883Z,44.18
2019-03-18T10:04:09.865Z,43.28
2019-03-18T10:05:09.872Z,42.78
2019-03-18T10:06:09.853Z,42.58
2019-03-18T10:07:09.856Z,41.77
2019-03-18T10:08:09.845Z,40.97
2019-03-18T10:09:09.868Z,42.07
2019-03-18T10:10:09.834Z,43.18
2019-03-18T10:11:09.805Z,43.18
2019-03-18T10:12:09.794Z,43.18
2019-03-18T10:13:09.790Z,43.06
2019-03-18T10:14:09.779Z,43.16
2019-03-18T10:15:09.785Z,43.06
2019-03-18T10:16:09.769Z,42.86
2019-03-18T10:17:10.262Z,42.86
2019-03-18T10:18:09.760Z,42.86
2019-03-18T10:19:09.748Z,42.78
2019-03-18T10:20:09.749Z,42.96
2019-03-18T10:21:09.729Z,42.78
2019-03-18T10:22:09.716Z,42.55
2019-03-18T10:23:09.710Z,42.66
2019-03-18T10:24:09.705Z,42.86
2019-03-18T10:25:09.706Z,42.76
2019-03-18T10:26:09.675Z,43.48
2019-03-18T10:27:09.663Z,42.88
2019-03-18T10:28:09.654Z,42.97
2019-03-18T10:29:09.663Z,42.88
2019-03-18T10:30:09.637Z,42.68
2019-03-18T10:31:09.629Z,43.18
2019-03-18T10:32:09.627Z,43.28
2019-03-18T10:33:09.622Z,42.66
2019-03-18T10:34:09.599Z,42.46
2019-03-18T10:35:09.586Z,42.76
2019-03-18T10:36:09.580Z,42.66
2019-03-18T10:37:09.574Z,42.47
2019-03-18T10:38:09.565Z,42.66
2019-03-18T10:39:09.565Z,43.06
2019-03-18T10:40:09.534Z,42.55
2019-03-18T10:41:09.548Z,42.55
2019-03-18T10:42:09.515Z,42.47
2019-03-18T10:43:09.501Z,42.78
2019-03-18T10:44:09.497Z,42.76
2019-03-18T10:45:09.519Z,42.86
2019-03-18T10:46:09.494Z,42.55
2019-03-18T10:47:09.489Z,42.46
2019-03-18T10:48:09.456Z,42.55
2019-03-18T10:49:09.440Z,42.46
2019-03-18T10:50:09.429Z,42.46
2019-03-18T10:51:09.429Z,42.55
2019-03-18T10:52:09.451Z,42.96
2019-03-18T10:53:09.410Z,42.55
2019-03-18T10:54:09.424Z,42.86
2019-03-18T10:55:09.384Z,43.58
2019-03-18T10:56:09.384Z,43.28
2019-03-18T10:57:09.374Z,43.16
2019-03-18T10:58:09.360Z,43.06
2019-03-18T10:59:09.349Z,42.96
2019-03-18T11:00:09.337Z,43.06
2019-03-18T11:01:09.342Z,42.66
2019-03-18T11:02:09.329Z,42.86
2019-03-18T11:03:09.314Z,43.46
2019-03-18T11:04:09.315Z,43.36
2019-03-18T11:05:09.315Z,42.86
2019-03-18T11:06:09.307Z,42.86
2019-03-18T11:07:09.285Z,42.66
2019-03-18T11:08:09.269Z,43.36
2019-03-18T11:09:09.275Z,43.46
2019-03-18T11:10:09.258Z,42.97
2019-03-18T11:11:09.275Z,42.97
2019-03-18T11:12:09.230Z,42.76
2019-03-18T11:13:09.219Z,42.68
2019-03-18T11:14:09.208Z,42.86
2019-03-18T11:15:09.212Z,43.36
2019-03-18T11:16:09.201Z,43.26
2019-03-18T11:17:09.197Z,42.66
2019-03-18T11:18:09.227Z,43.06
2019-03-18T11:19:09.166Z,43.04
2019-03-18T11:20:09.156Z,43.16
2019-03-18T11:21:09.160Z,43.04
2019-03-18T11:22:09.143Z,43.16
2019-03-18T11:23:09.135Z,43.46
2019-03-18T11:24:09.140Z,42.96
2019-03-18T11:25:09.138Z,43.46
2019-03-18T11:26:09.133Z,43.76
2019-03-18T11:27:09.100Z,43.14
2019-03-18T11:28:09.104Z,43.04
2019-03-18T11:29:09.089Z,42.35
2019-03-18T11:30:09.079Z,42.66
2019-03-18T11:31:09.061Z,42.96
2019-03-18T11:32:09.057Z,43.16
2019-03-18T11:33:09.048Z,43.56
2019-03-18T11:34:09.036Z,42.96
2019-03-18T11:35:09.027Z,42.66
2019-03-18T11:36:09.015Z,43.78
2019-03-18T11:37:09.012Z,43.36
2019-03-18T11:38:08.986Z,43.66
2019-03-18T11:39:08.975Z,43.16
2019-03-18T11:40:08.965Z,43.68
2019-03-18T11:41:08.954Z,43.68
2019-03-18T11:42:08.950Z,43.78
2019-03-18T11:43:08.927Z,43.56
2019-03-18T11:44:08.913Z,43.68
2019-03-18T11:45:08.910Z,43.78
2019-03-18T11:46:08.895Z,43.68
2019-03-18T11:47:08.892Z,43.68
2019-03-18T11:48:08.860Z,43.68
2019-03-18T11:49:08.845Z,43.58
2019-03-18T11:50:11.483Z,43.58
2019-03-18T11:51:08.811Z,43.68
2019-03-18T11:52:08.813Z,43.38
2019-03-18T11:53:14.287Z,43.38
2019-03-18T11:54:09.795Z,43.48
2019-03-18T11:55:08.758Z,43.68
2019-03-18T11:56:08.745Z,43.68
2019-03-18T11:57:08.727Z,43.68
2019-03-18T11:58:08.720Z,43.48
2019-03-18T11:59:08.701Z,43.68
2019-03-18T12:00:08.687Z,43.98
2019-03-18T12:01:08.674Z,43.78
2019-03-18T12:02:08.663Z,43.98
2019-03-18T12:03:08.676Z,44.08
2019-03-18T12:04:08.657Z,43.88
2019-03-18T12:05:08.633Z,43.88
2019-03-18T12:06:08.621Z,43.78
2019-03-18T12:07:08.613Z,43.98
2019-03-18T12:08:08.618Z,44.28
2019-03-18T12:09:08.598Z,44.38
2019-03-18T12:10:08.591Z,44.38
2019-03-18T12:11:08.592Z,44.28
2019-03-18T12:12:08.572Z,44.18
2019-03-18T12:13:08.591Z,43.68
2019-03-18T12:14:08.557Z,44.18
2019-03-18T12:15:08.552Z,44.48
2019-03-18T12:16:08.548Z,44.48
2019-03-18T12:17:08.536Z,44.48
2019-03-18T12:18:08.544Z,44.59
2019-03-18T12:19:08.592Z,44.38
2019-03-18T12:20:08.502Z,44.71
2019-03-18T12:21:08.493Z,44.51
2019-03-18T12:22:08.485Z,44.71
2019-03-18T12:23:08.489Z,44.51
2019-03-18T12:24:08.471Z,44.51
2019-03-18T12:25:08.454Z,44.60
2019-03-18T12:26:08.446Z,44.20
2019-03-18T12:27:08.441Z,44.51
2019-03-18T12:28:08.457Z,44.20
2019-03-18T12:29:08.438Z,44.40
2019-03-18T12:30:08.418Z,44.48
2019-03-18T12:31:08.420Z,44.59
2019-03-18T12:32:08.404Z,44.28
2019-03-18T12:33:08.406Z,44.68
2019-03-18T12:34:08.390Z,44.18
2019-03-18T12:35:08.382Z,44.68
2019-03-18T12:36:08.374Z,44.51
2019-03-18T12:37:08.375Z,44.08
2019-03-18T12:38:08.383Z,44.79
2019-03-18T12:39:08.370Z,44.89
2019-03-18T12:40:08.354Z,44.48
2019-03-18T12:41:08.341Z,44.71
2019-03-18T12:42:08.328Z,45.39
2019-03-18T12:43:08.329Z,45.39
2019-03-18T12:44:08.307Z,45.39
2019-03-18T12:45:08.881Z,45.69
2019-03-18T12:46:08.287Z,45.49
2019-03-18T12:47:08.282Z,45.49
2019-03-18T12:48:08.283Z,46.11
2019-03-18T12:49:08.267Z,46.09
2019-03-18T12:50:08.257Z,45.99
2019-03-18T12:51:08.261Z,45.69
2019-03-18T12:52:08.234Z,46.09